createdAt,value
2019-05-12T00:00:08.080Z,93.90
2019-05-12T00:02:39.470Z,93.90
2019-05-12T00:05:08.724Z,94.10
2019-05-12T00:07:38.195Z,94.20
2019-05-12T00:10:08.644Z,94.30
2019-05-12T00:12:38.491Z,94.40
2019-05-12T00:15:08.215Z,94.40
2019-05-12T00:17:38.843Z,94.60
2019-05-12T00:20:08.589Z,95.10
2019-05-12T00:22:38.668Z,94.80
2019-05-12T00:25:08.771Z,94.80
2019-05-12T00:27:38.818Z,94.90
2019-05-12T00:30:10.059Z,95.00
2019-05-12T00:32:38.565Z,95.00
2019-05-12T00:35:07.805Z,95.10
2019-05-12T00:37:38.094Z,95.10
2019-05-12T00:40:08.751Z,95.30
2019-05-12T00:42:38.120Z,95.30
2019-05-12T00:45:08.056Z,95.30
2019-05-12T00:47:38.881Z,95.30
2019-05-12T00:50:08.058Z,95.30
2019-05-12T00:52:38.498Z,95.30
2019-05-12T00:55:07.954Z,95.20
2019-05-12T00:57:38.314Z,95.20
2019-05-12T01:00:08.780Z,95.20
2019-05-12T01:02:38.084Z,95.30
2019-05-12T01:05:08.589Z,95.30
2019-05-12T01:07:38.265Z,95.20
2019-05-12T01:10:08.898Z,95.20
2019-05-12T01:12:38.164Z,95.10
2019-05-12T01:15:07.906Z,95.20
2019-05-12T01:17:39.973Z,95.10
2019-05-12T01:20:08.898Z,95.10
2019-05-12T01:22:38.363Z,95.10
2019-05-12T01:25:08.575Z,95.20
2019-05-12T01:27:38.202Z,95.20
2019-05-12T01:30:08.687Z,95.10
2019-05-12T01:32:40.591Z,95.10
2019-05-12T01:35:08.970Z,95.00
2019-05-12T01:37:38.374Z,95.00
2019-05-12T01:40:08.832Z,94.90
2019-05-12T01:42:38.194Z,94.80
2019-05-12T01:45:09.164Z,94.60
2019-05-12T01:47:38.204Z,94.20
2019-05-12T01:50:09.162Z,93.80
2019-05-12T01:52:38.583Z,93.50
2019-05-12T01:55:08.148Z,93.20
2019-05-12T01:57:38.551Z,93.10
2019-05-12T02:00:10.923Z,93.10
2019-05-12T02:02:39.373Z,93.10
2019-05-12T02:05:08.734Z,93.10
2019-05-12T02:07:38.929Z,93.60
2019-05-12T02:10:09.358Z,93.30
2019-05-12T02:12:38.418Z,93.30
2019-05-12T02:15:08.220Z,93.40
2019-05-12T02:17:39.100Z,93.40
2019-05-12T02:20:07.860Z,93.40
2019-05-12T02:22:38.602Z,93.50
2019-05-12T02:25:08.115Z,93.50
2019-05-12T02:27:38.307Z,93.40
2019-05-12T02:30:09.989Z,93.40
2019-05-12T02:32:48.105Z,93.40
2019-05-12T02:35:06.890Z,93.40
2019-05-12T02:37:35.914Z,93.50
2019-05-12T02:40:07.212Z,93.60
2019-05-12T02:42:35.594Z,93.70
2019-05-12T02:45:06.019Z,93.80
2019-05-12T02:47:34.797Z,93.90
2019-05-12T02:50:05.477Z,94.00
2019-05-12T02:52:34.750Z,94.10
2019-05-12T02:55:05.998Z,94.00
2019-05-12T02:57:34.411Z,93.90
2019-05-12T03:00:05.259Z,93.70
2019-05-12T03:02:35.537Z,93.60
2019-05-12T03:05:05.845Z,93.60
2019-05-12T03:07:36.269Z,93.60
2019-05-12T03:10:08.924Z,93.70
2019-05-12T03:12:37.358Z,93.70
2019-05-12T03:15:06.564Z,93.80
2019-05-12T03:17:35.740Z,93.90
2019-05-12T03:20:05.893Z,94.10
2019-05-12T03:22:35.392Z,94.20
2019-05-12T03:25:15.597Z,94.30
2019-05-12T03:27:35.353Z,94.50
2019-05-12T03:30:11.602Z,94.70
2019-05-12T03:32:37.924Z,94.90
2019-05-12T03:35:08.833Z,94.90
2019-05-12T03:37:36.078Z,95.10
2019-05-12T03:40:06.647Z,95.30
2019-05-12T03:42:35.567Z,95.50
2019-05-12T03:45:04.952Z,95.60
2019-05-12T03:47:35.548Z,95.70
2019-05-12T03:50:04.981Z,95.70
2019-05-12T03:52:35.046Z,95.80
2019-05-12T03:55:05.665Z,95.80
2019-05-12T03:57:34.689Z,95.60
2019-05-12T04:00:05.212Z,95.80
2019-05-12T04:02:34.187Z,96.00
2019-05-12T04:05:05.180Z,96.10
2019-05-12T04:07:34.541Z,96.30
2019-05-12T04:10:05.197Z,96.50
2019-05-12T04:12:34.660Z,96.70
2019-05-12T04:15:05.256Z,97.00
2019-05-12T04:17:34.985Z,97.20
2019-05-12T04:20:04.925Z,97.40
2019-05-12T04:22:35.241Z,97.40
2019-05-12T04:25:06.057Z,97.50
2019-05-12T04:27:34.778Z,97.60
2019-05-12T04:30:05.614Z,97.50
2019-05-12T04:32:35.834Z,97.30
2019-05-12T04:35:07.062Z,97.20
2019-05-12T04:37:35.527Z,97.20
2019-05-12T04:40:05.619Z,97.10
2019-05-12T04:42:34.927Z,97.00
2019-05-12T04:45:06.984Z,96.80
2019-05-12T04:47:35.401Z,96.60
2019-05-12T04:50:05.456Z,96.30
2019-05-12T04:52:35.130Z,95.60
2019-05-12T04:55:04.941Z,95.50
2019-05-12T04:57:34.609Z,96.20
2019-05-12T05:00:05.556Z,98.00
2019-05-12T05:02:36.309Z,99.10
2019-05-12T05:05:06.444Z,99.90
2019-05-12T05:07:35.912Z,99.90
2019-05-12T05:10:05.459Z,99.90
2019-05-12T05:12:34.581Z,99.90
2019-05-12T05:15:05.458Z,99.90
2019-05-12T05:17:34.763Z,99.90
2019-05-12T05:20:04.379Z,99.90
2019-05-12T05:22:33.362Z,99.90
2019-05-12T05:25:04.128Z,99.90
2019-05-12T05:27:33.989Z,99.90
2019-05-12T05:30:03.988Z,99.90
2019-05-12T05:32:33.968Z,99.90
2019-05-12T05:35:03.974Z,99.90
2019-05-12T05:37:39.596Z,99.90
2019-05-12T05:40:03.978Z,99.90
2019-05-12T05:42:35.056Z,99.90
2019-05-12T05:45:04.645Z,99.90
2019-05-12T05:47:33.602Z,99.90
2019-05-12T05:50:04.613Z,99.90
2019-05-12T05:52:34.148Z,99.90
2019-05-12T05:55:05.696Z,99.90
2019-05-12T05:57:33.657Z,99.60
2019-05-12T06:00:07.138Z,99.30
2019-05-12T06:02:39.633Z,99.40
2019-05-12T06:05:04.388Z,99.10
2019-05-12T06:07:39.054Z,98.80
2019-05-12T06:10:07.247Z,98.20
2019-05-12T06:12:40.530Z,98.10
2019-05-12T06:15:08.670Z,98.20
2019-05-12T06:17:36.023Z,98.00
2019-05-12T06:20:05.249Z,97.60
2019-05-12T06:22:34.315Z,97.40
2019-05-12T06:25:04.925Z,97.80
2019-05-12T06:27:35.724Z,97.90
2019-05-12T06:30:06.249Z,97.30
2019-05-12T06:32:33.790Z,97.20
2019-05-12T06:35:04.584Z,97.00
2019-05-12T06:37:33.894Z,96.50
2019-05-12T06:40:03.569Z,96.30
2019-05-12T06:42:34.129Z,95.80
2019-05-12T06:45:03.766Z,95.40
2019-05-12T06:47:34.349Z,95.10
2019-05-12T06:50:03.881Z,94.10
2019-05-12T06:52:33.749Z,92.90
2019-05-12T06:55:03.977Z,91.20
2019-05-12T06:57:34.240Z,90.10
2019-05-12T07:00:04.560Z,89.90
2019-05-12T07:02:37.006Z,90.90
2019-05-12T07:05:04.357Z,92.10
2019-05-12T07:07:35.852Z,93.20
2019-05-12T07:10:11.313Z,93.40
2019-05-12T07:12:39.672Z,93.50
2019-05-12T07:15:03.764Z,93.60
2019-05-12T07:17:49.842Z,93.20
2019-05-12T07:20:15.942Z,92.90
2019-05-12T07:22:48.368Z,92.30
2019-05-12T07:25:14.383Z,90.90
2019-05-12T07:27:45.607Z,89.70
2019-05-12T07:30:13.684Z,87.70
2019-05-12T07:32:43.369Z,85.90
2019-05-12T07:35:11.894Z,85.10
2019-05-12T07:37:40.312Z,85.50
2019-05-12T07:40:08.784Z,85.80
2019-05-12T07:42:39.485Z,85.10
2019-05-12T07:45:11.368Z,84.80
2019-05-12T07:47:37.552Z,83.40
2019-05-12T07:50:09.916Z,84.90
2019-05-12T07:52:36.038Z,89.80
2019-05-12T07:55:06.135Z,93.90
2019-05-12T07:57:40.707Z,97.80
2019-05-12T08:00:11.359Z,98.90
2019-05-12T08:02:36.440Z,99.90
2019-05-12T08:05:05.674Z,99.90
2019-05-12T08:07:34.057Z,99.90
2019-05-12T08:10:07.316Z,99.90
2019-05-12T08:12:34.060Z,99.90
2019-05-12T08:15:05.447Z,99.90
2019-05-12T08:17:33.721Z,99.90
2019-05-12T08:20:04.323Z,99.90
2019-05-12T08:22:34.540Z,99.90
2019-05-12T08:25:04.182Z,99.90
2019-05-12T08:27:34.000Z,99.90
2019-05-12T08:30:06.035Z,99.90
2019-05-12T08:32:33.834Z,99.90
2019-05-12T08:35:04.883Z,99.90
2019-05-12T08:37:33.370Z,99.50
2019-05-12T08:40:04.324Z,98.40
2019-05-12T08:42:34.309Z,98.00
2019-05-12T08:45:04.117Z,96.80
2019-05-12T08:47:35.549Z,95.00
2019-05-12T08:50:04.585Z,94.40
2019-05-12T08:52:37.157Z,94.20
2019-05-12T08:55:04.316Z,94.50
2019-05-12T08:57:40.521Z,94.20
2019-05-12T09:00:06.717Z,95.00
2019-05-12T09:02:34.379Z,95.50
2019-05-12T09:05:04.641Z,95.90
2019-05-12T09:07:35.880Z,96.00
2019-05-12T09:10:04.182Z,96.50
2019-05-12T09:12:33.773Z,96.60
2019-05-12T09:15:04.327Z,95.80
2019-05-12T09:17:34.708Z,94.20
2019-05-12T09:20:08.203Z,91.80
2019-05-12T09:22:34.326Z,90.40
2019-05-12T09:25:06.386Z,88.50
2019-05-12T09:27:33.505Z,87.50
2019-05-12T09:30:07.635Z,87.20
2019-05-12T09:32:33.930Z,87.50
2019-05-12T09:35:03.986Z,85.30
2019-05-12T09:37:39.103Z,85.90
2019-05-12T09:40:04.425Z,86.50
2019-05-12T09:42:33.399Z,85.70
2019-05-12T09:45:08.036Z,86.50
2019-05-12T09:47:34.142Z,84.80
2019-05-12T09:50:04.175Z,85.10
2019-05-12T09:52:33.365Z,85.10
2019-05-12T09:55:04.073Z,85.20
2019-05-12T09:57:40.404Z,84.90
2019-05-12T10:00:04.273Z,84.60
2019-05-12T10:02:32.108Z,83.90
2019-05-12T10:05:00.988Z,83.50
2019-05-12T10:07:29.553Z,82.10
2019-05-12T10:09:59.229Z,82.50
2019-05-12T10:12:29.661Z,82.30
2019-05-12T10:14:57.863Z,81.40
2019-05-12T10:17:30.015Z,82.40
2019-05-12T10:19:58.101Z,82.60
2019-05-12T10:22:30.107Z,81.80
2019-05-12T10:24:58.769Z,83.00
2019-05-12T10:27:31.891Z,82.60
2019-05-12T10:30:02.496Z,81.30
2019-05-12T10:32:27.597Z,77.60
2019-05-12T10:34:56.342Z,77.10
2019-05-12T10:37:29.208Z,77.90
2019-05-12T10:39:54.865Z,74.70
2019-05-12T10:42:24.343Z,71.40
2019-05-12T10:44:54.502Z,71.10
2019-05-12T10:47:23.902Z,71.20
2019-05-12T10:49:53.781Z,69.90
2019-05-12T10:52:24.303Z,69.40
2019-05-12T10:54:53.820Z,67.90
2019-05-12T10:57:22.403Z,67.80
2019-05-12T10:59:53.271Z,68.30
2019-05-12T11:02:26.497Z,68.90
2019-05-12T11:04:51.008Z,68.20
2019-05-12T11:07:22.865Z,68.60
2019-05-12T11:09:49.476Z,67.30
2019-05-12T11:12:19.194Z,67.00
2019-05-12T11:14:47.950Z,65.30
2019-05-12T11:17:16.363Z,64.40
2019-05-12T11:19:47.100Z,64.00
2019-05-12T11:22:15.169Z,64.10
2019-05-12T11:24:44.399Z,64.00
2019-05-12T11:27:13.406Z,63.60
2019-05-12T11:29:48.542Z,60.70
2019-05-12T11:32:13.906Z,61.40
2019-05-12T11:34:43.821Z,61.40
2019-05-12T11:37:13.847Z,61.60
2019-05-12T11:39:45.302Z,61.20
2019-05-12T11:42:13.665Z,59.10
2019-05-12T11:44:44.180Z,58.90
2019-05-12T11:47:14.721Z,58.60
2019-05-12T11:49:44.148Z,58.00
2019-05-12T11:52:16.773Z,56.40
2019-05-12T11:54:49.089Z,56.80
2019-05-12T11:57:13.307Z,57.60
2019-05-12T11:59:44.669Z,57.70
2019-05-12T12:02:13.448Z,57.70
2019-05-12T12:04:47.909Z,58.70
2019-05-12T12:07:16.693Z,56.40
2019-05-12T12:09:49.423Z,56.60
2019-05-12T12:12:17.575Z,57.90
2019-05-12T12:14:50.159Z,59.70
2019-05-12T12:17:25.130Z,59.70
2019-05-12T12:19:48.223Z,58.90
2019-05-12T12:22:20.266Z,58.10
2019-05-12T12:24:46.672Z,59.10
2019-05-12T12:27:15.149Z,59.00
2019-05-12T12:29:43.968Z,57.90
2019-05-12T12:32:18.467Z,55.00
2019-05-12T12:34:44.074Z,54.10
2019-05-12T12:37:13.677Z,54.00
2019-05-12T12:39:43.489Z,54.60
2019-05-12T12:42:13.879Z,55.20
2019-05-12T12:44:42.085Z,55.60
2019-05-12T12:47:10.473Z,56.40
2019-05-12T12:49:40.017Z,56.90
2019-05-12T12:52:09.031Z,57.30
2019-05-12T12:54:37.423Z,55.90
2019-05-12T12:57:09.810Z,55.60
2019-05-12T12:59:35.877Z,55.10
2019-05-12T13:02:07.909Z,54.90
2019-05-12T13:04:39.546Z,54.60
2019-05-12T13:07:04.736Z,55.40
2019-05-12T13:09:33.541Z,55.60
2019-05-12T13:12:05.964Z,55.70
2019-05-12T13:14:36.390Z,55.20
2019-05-12T13:17:03.858Z,54.20
2019-05-12T13:19:33.276Z,55.60
2019-05-12T13:22:03.597Z,55.60
2019-05-12T13:24:33.533Z,55.30
2019-05-12T13:27:03.609Z,55.40
2019-05-12T13:29:35.399Z,56.20
2019-05-12T13:32:03.361Z,57.30
2019-05-12T13:34:34.754Z,55.80
2019-05-12T13:37:03.443Z,54.90
2019-05-12T13:39:33.546Z,56.30
2019-05-12T13:42:03.206Z,57.50
2019-05-12T13:44:38.703Z,57.30
2019-05-12T13:47:03.406Z,56.40
2019-05-12T13:49:36.100Z,55.10
2019-05-12T13:52:04.096Z,54.60
2019-05-12T13:54:33.991Z,54.00
2019-05-12T13:57:03.796Z,55.60
2019-05-12T13:59:33.970Z,56.80
2019-05-12T14:02:03.285Z,56.50
2019-05-12T14:04:33.670Z,56.50
2019-05-12T14:07:03.903Z,57.00
2019-05-12T14:09:34.210Z,55.20
2019-05-12T14:12:04.218Z,55.30
2019-05-12T14:14:34.068Z,56.30
2019-05-12T14:17:04.158Z,57.10
2019-05-12T14:19:35.574Z,57.00
2019-05-12T14:22:03.544Z,55.40
2019-05-12T14:24:33.124Z,57.00
2019-05-12T14:27:03.968Z,56.60
2019-05-12T14:29:33.403Z,56.20
2019-05-12T14:32:04.855Z,55.50
2019-05-12T14:34:33.884Z,55.80
2019-05-12T14:37:08.470Z,56.10
2019-05-12T14:39:34.345Z,55.50
2019-05-12T14:42:04.232Z,56.20
2019-05-12T14:44:35.969Z,55.40
2019-05-12T14:47:03.834Z,55.80
2019-05-12T14:49:33.332Z,55.90
2019-05-12T14:52:03.352Z,55.80
2019-05-12T14:54:31.826Z,56.50
2019-05-12T14:57:00.296Z,56.50
2019-05-12T14:59:33.637Z,56.30
2019-05-12T15:01:59.542Z,55.60
2019-05-12T15:04:29.974Z,55.60
2019-05-12T15:06:59.760Z,55.90
2019-05-12T15:09:28.556Z,55.60
2019-05-12T15:11:56.967Z,55.70
2019-05-12T15:14:32.471Z,56.30
2019-05-12T15:16:55.468Z,55.70
2019-05-12T15:19:27.807Z,56.80
2019-05-12T15:21:53.917Z,57.30
2019-05-12T15:24:24.438Z,58.60
2019-05-12T15:26:57.486Z,58.70
2019-05-12T15:29:23.500Z,59.20
2019-05-12T15:31:56.383Z,59.30
2019-05-12T15:34:23.626Z,59.50
2019-05-12T15:36:56.163Z,60.20
2019-05-12T15:39:22.379Z,61.00
2019-05-12T15:41:51.129Z,60.70
2019-05-12T15:44:23.139Z,60.00
2019-05-12T15:46:53.441Z,59.90
2019-05-12T15:49:21.008Z,59.40
2019-05-12T15:51:54.089Z,60.00
2019-05-12T15:54:19.455Z,60.30
2019-05-12T15:56:47.938Z,61.20
2019-05-12T15:59:17.451Z,61.60
2019-05-12T16:01:46.000Z,62.20
2019-05-12T16:04:15.094Z,63.50
2019-05-12T16:06:53.023Z,63.50
2019-05-12T16:09:14.088Z,64.00
2019-05-12T16:11:42.603Z,64.50
2019-05-12T16:14:11.005Z,64.00
2019-05-12T16:16:42.601Z,65.00
2019-05-12T16:19:09.503Z,65.20
2019-05-12T16:21:37.894Z,65.50
2019-05-12T16:24:10.918Z,66.20
2019-05-12T16:26:55.797Z,66.30
2019-05-12T16:29:24.212Z,66.40
2019-05-12T16:31:53.665Z,67.20
2019-05-12T16:34:22.164Z,69.20
2019-05-12T16:36:52.572Z,70.40
2019-05-12T16:39:20.620Z,71.50
2019-05-12T16:41:49.019Z,72.70
2019-05-12T16:44:23.241Z,73.30
2019-05-12T16:46:47.520Z,73.70
2019-05-12T16:49:16.067Z,72.70
2019-05-12T16:51:44.454Z,72.70
2019-05-12T16:54:12.894Z,73.70
2019-05-12T16:56:43.385Z,73.10
2019-05-12T16:59:16.860Z,72.50
2019-05-12T17:01:43.869Z,73.10
2019-05-12T17:04:13.446Z,74.40
2019-05-12T17:06:43.268Z,75.80
2019-05-12T17:09:13.509Z,76.20
2019-05-12T17:11:47.234Z,76.90
2019-05-12T17:14:12.047Z,77.70
2019-05-12T17:16:45.103Z,78.80
2019-05-12T17:19:10.822Z,79.30
2019-05-12T17:21:39.245Z,76.60
2019-05-12T17:24:07.664Z,76.80
2019-05-12T17:26:36.087Z,78.10
2019-05-12T17:29:04.510Z,79.00
2019-05-12T17:31:33.853Z,78.10
2019-05-12T17:34:06.387Z,77.70
2019-05-12T17:36:34.401Z,76.80
2019-05-12T17:39:04.241Z,78.10
2019-05-12T17:41:40.566Z,78.60
2019-05-12T17:44:04.272Z,79.10
2019-05-12T17:46:37.939Z,80.40
2019-05-12T17:49:03.992Z,81.60
2019-05-12T17:51:32.534Z,82.20
2019-05-12T17:54:03.792Z,83.40
2019-05-12T17:56:36.662Z,83.90
2019-05-12T17:59:01.133Z,83.70
2019-05-12T18:01:31.320Z,83.30
2019-05-12T18:03:59.640Z,83.00
2019-05-12T18:06:30.939Z,84.00
2019-05-12T18:08:58.061Z,85.10
2019-05-12T18:11:26.458Z,86.10
2019-05-12T18:14:01.103Z,86.70
2019-05-12T18:16:25.560Z,86.20
2019-05-12T18:18:53.953Z,86.90
2019-05-12T18:21:30.174Z,88.20
2019-05-12T18:23:53.648Z,89.20
2019-05-12T18:26:24.497Z,89.80
2019-05-12T18:28:54.437Z,90.30
2019-05-12T18:31:22.354Z,90.90
2019-05-12T18:33:53.689Z,91.10
2019-05-12T18:36:20.809Z,91.30
2019-05-12T18:38:49.258Z,91.40
2019-05-12T18:41:17.733Z,91.50
2019-05-12T18:43:46.115Z,91.70
2019-05-12T18:46:14.531Z,92.10
2019-05-12T18:48:42.908Z,92.30
2019-05-12T18:51:12.299Z,92.40
2019-05-12T18:53:43.659Z,92.50
2019-05-12T18:56:19.855Z,92.50
2019-05-12T18:58:41.501Z,92.30
2019-05-12T19:01:09.972Z,92.10
2019-05-12T19:03:47.829Z,92.10
2019-05-12T19:06:08.435Z,92.10
2019-05-12T19:08:36.840Z,92.00
2019-05-12T19:11:18.825Z,92.00
2019-05-12T19:13:35.287Z,92.00
2019-05-12T19:16:07.052Z,92.20
2019-05-12T19:18:37.315Z,92.50
2019-05-12T19:21:04.658Z,92.90
2019-05-12T19:23:35.424Z,93.10
2019-05-12T19:26:04.263Z,93.20
2019-05-12T19:28:34.275Z,93.50
2019-05-12T19:31:06.268Z,93.70
2019-05-12T19:33:32.857Z,93.90
2019-05-12T19:36:07.182Z,94.10
2019-05-12T19:38:31.311Z,94.20
2019-05-12T19:41:04.657Z,94.30
2019-05-12T19:43:33.973Z,94.50
2019-05-12T19:46:03.730Z,94.70
2019-05-12T19:48:35.135Z,94.90
2019-05-12T19:51:19.547Z,95.10
2019-05-12T19:53:33.226Z,95.30
2019-05-12T19:56:03.633Z,95.50
2019-05-12T19:58:33.861Z,95.60
2019-05-12T20:01:03.672Z,95.60
2019-05-12T20:03:33.488Z,95.80
2019-05-12T20:06:01.921Z,96.40
2019-05-12T20:08:30.305Z,96.60
2019-05-12T20:10:58.707Z,96.80
2019-05-12T20:13:29.454Z,96.90
2019-05-12T20:15:57.559Z,97.00
2019-05-12T20:18:26.095Z,97.10
2019-05-12T20:20:54.558Z,97.20
2019-05-12T20:23:24.573Z,97.40
2019-05-12T20:25:53.586Z,97.60
2019-05-12T20:28:24.272Z,97.60
2019-05-12T20:31:00.577Z,97.80
2019-05-12T20:33:24.076Z,98.00
2019-05-12T20:35:54.474Z,98.20
2019-05-12T20:38:25.474Z,98.30
2019-05-12T20:40:54.019Z,98.60
2019-05-12T20:43:23.994Z,98.70
2019-05-12T20:45:52.435Z,98.90
2019-05-12T20:48:26.521Z,99.10
2019-05-12T20:50:50.966Z,99.30
2019-05-12T20:53:24.738Z,99.50
2019-05-12T20:55:49.402Z,99.70
2019-05-12T20:58:17.776Z,99.80
2019-05-12T21:00:50.107Z,99.80
2019-05-12T21:03:16.308Z,99.90
2019-05-12T21:05:50.750Z,99.90
2019-05-12T21:08:17.484Z,99.90
2019-05-12T21:10:45.881Z,99.90
2019-05-12T21:13:14.835Z,99.90
2019-05-12T21:15:45.674Z,99.90
2019-05-12T21:18:14.742Z,99.90
2019-05-12T21:20:46.390Z,99.90
2019-05-12T21:23:13.563Z,99.90
2019-05-12T21:25:43.833Z,99.90
2019-05-12T21:28:14.639Z,99.90
2019-05-12T21:30:42.436Z,99.90
2019-05-12T21:33:14.484Z,99.90
2019-05-12T21:35:45.814Z,99.90
2019-05-12T21:38:13.457Z,99.90
2019-05-12T21:40:44.064Z,99.90
2019-05-12T21:43:13.561Z,99.90
2019-05-12T21:45:42.215Z,99.90
2019-05-12T21:48:15.220Z,99.90
2019-05-12T21:50:44.301Z,99.90
2019-05-12T21:53:19.166Z,99.90
2019-05-12T21:55:44.387Z,99.90
2019-05-12T21:58:15.182Z,99.90
2019-05-12T22:00:50.386Z,99.90
2019-05-12T22:03:16.842Z,99.90
2019-05-12T22:05:51.622Z,99.90
2019-05-12T22:08:22.102Z,99.90
2019-05-12T22:10:48.620Z,99.90
2019-05-12T22:13:18.103Z,99.90
2019-05-12T22:15:51.375Z,99.90
2019-05-12T22:18:17.053Z,99.90
2019-05-12T22:20:46.453Z,99.90
2019-05-12T22:23:15.275Z,99.90
2019-05-12T22:25:43.754Z,99.90
2019-05-12T22:28:13.675Z,99.90
2019-05-12T22:30:43.835Z,99.90
2019-05-12T22:33:13.789Z,99.90
2019-05-12T22:35:44.398Z,99.90
2019-05-12T22:38:16.579Z,99.90
2019-05-12T22:40:43.589Z,99.90
2019-05-12T22:43:14.061Z,99.90
2019-05-12T22:45:49.214Z,99.90
2019-05-12T22:48:12.102Z,99.90
2019-05-12T22:50:40.499Z,99.90
2019-05-12T22:53:08.871Z,99.90
2019-05-12T22:55:37.321Z,99.90
2019-05-12T22:58:10.842Z,99.90
2019-05-12T23:00:35.699Z,99.90
2019-05-12T23:03:11.508Z,99.90
2019-05-12T23:05:34.134Z,99.90
2019-05-12T23:08:06.042Z,99.90
2019-05-12T23:10:32.627Z,99.90
2019-05-12T23:13:02.218Z,99.90
2019-05-12T23:15:33.270Z,99.90
2019-05-12T23:18:01.098Z,99.90
2019-05-12T23:20:31.081Z,99.90
2019-05-12T23:22:59.707Z,99.90
2019-05-12T23:25:28.100Z,99.90
2019-05-12T23:28:00.323Z,99.90
2019-05-12T23:30:34.006Z,99.90
2019-05-12T23:33:03.901Z,99.90
2019-05-12T23:35:37.722Z,99.90
2019-05-12T23:38:04.522Z,99.90
2019-05-12T23:40:34.571Z,99.90
2019-05-12T23:43:03.993Z,99.90
2019-05-12T23:45:34.040Z,99.90
2019-05-12T23:48:03.749Z,99.90
2019-05-12T23:50:32.443Z,99.90
2019-05-12T23:53:03.428Z,99.90
2019-05-12T23:55:34.662Z,99.90
2019-05-12T23:58:04.226Z,99.90
